Stanley, ID

9:23 PM MST on March 06, 2015 (GMT -0700)
Challis | Change Station
CLOSE
Current Station
Airport
Location: Challis,
Elevation: 5072 ft
Nearby Weather Stations

Elev 5072 ft 44.52 °N, 114.21 °W | Updated 28 minutes ago

Clear
Clear
40 °F
Feels Like 40 °F
N
0
Wind Variable Wind from North

Today
High -- | Low -- °F
--% Chance of Precip.
Yesterday
High -- | Low -- °F
Precip. -- in
7:08 AM 6:33 PM
Full, 98% visible
Pressure 30.37 in
Visibility 10.0 miles
Clouds Clear
Dew Point 17 °F
Humidity 40%
Rainfall 0.00 in
Snow Depth Not available.
UV 0 out of 12
Pollen 3.00 out of 12
Air Quality Not available.
Flu Activity Not available.
METAR KLLJ 070355Z AUTO 00000KT 10SM CLR 04/M08 A3034 RMK AO2 SLP283 T00441083

More Conditions Fewer Conditions

Pressure 30.37 in
Visibility 10.0 miles
Clouds Clear
Dew Point 17 °F
Humidity 40%
Rainfall 0.00 in
Snow Depth Not available.
UV 0 out of 12
Pollen 3.00 out of 12
Air Quality Not available.
Flu Activity Not available.
METAR KLLJ 070355Z AUTO 00000KT 10SM CLR 04/M08 A3034 RMK AO2 SLP283 T00441083

More Conditions Fewer Conditions

10-Day Weather Forecast

Almanac

Astronomy

Mar. 06, 2015 Rise Set
Actual Time
Civil Twilight
Nautical Twilight
Astronomical Twilight
Moon
Length of Visible Light
Length of Day
Tomorrow will be .
, % of the Moon is Illuminated

Today's Extremes

State Highs State Lows

Community

WunderPhotos

Upload Photos

1,803,537 photos uploaded!

WunderBlogs® & News

Nearby

Air Quality

  Air Quality AQ Index Pollutant
Not available.

Snow Depth

Station Depth Elevation

Earthquake Activity

City Distance Mag. Time & Date
Minimum magnitude displayed is 2.5.

Coastal Water Temperatures

Place Temperature

Nearby Weather Stations